Time;durP1;ratioP1;P1;durP2;ratioP2;P2;SDS_P1;SDS_P2;PMS_P1;PMS_P2;Temp;Humidity;BMP_temperature;BMP_pressure;BME280_temperature;BME280_humidity;BME280_pressure;Samples;Min_cycle;Max_cycle;Signal;HPM_P1;HPM_P2
2022/04/08 00:00:22;;;;;;;8.32;2.92;;;6.80;99.90;;;;;;5012077;28;20030;-72
2022/04/08 00:02:50;;;;;;;8.70;2.00;;;6.70;99.90;;;;;;5012334;28;20109;-71
2022/04/08 00:05:15;;;;;;;11.05;1.92;;;6.70;99.90;;;;;;5008793;28;20018;-72
2022/04/08 00:07:41;;;;;;;16.27;2.88;;;6.70;99.90;;;;;;5012103;28;20513;-73
2022/04/08 00:10:07;;;;;;;12.82;3.92;;;6.60;99.90;;;;;;5011964;28;20081;-70
2022/04/08 00:12:33;;;;;;;16.33;3.00;;;6.70;99.90;;;;;;5012128;28;20488;-74
2022/04/08 00:14:59;;;;;;;17.40;2.55;;;6.70;99.90;;;;;;5012188;28;20041;-71
2022/04/08 00:17:25;;;;;;;14.82;1.73;;;6.70;99.90;;;;;;5012154;28;20026;-71
2022/04/08 00:19:51;;;;;;;11.88;1.95;;;6.70;99.90;;;;;;5012214;28;20088;-71
2022/04/08 00:22:18;;;;;;;7.22;1.65;;;6.70;99.90;;;;;;5011471;28;20489;-72
2022/04/08 00:24:44;;;;;;;15.30;1.85;;;6.80;99.90;;;;;;5010475;28;20075;-74
2022/04/08 00:27:10;;;;;;;18.60;2.20;;;6.80;99.90;;;;;;5011974;28;20494;-70
2022/04/08 00:29:36;;;;;;;12.75;1.98;;;6.80;99.90;;;;;;5012037;28;20049;-70
2022/04/08 00:32:01;;;;;;;13.10;1.80;;;6.80;99.90;;;;;;5011466;28;20022;-72
2022/04/08 00:34:27;;;;;;;9.23;1.83;;;6.90;99.90;;;;;;5015599;28;20042;-70
2022/04/08 00:36:54;;;;;;;19.27;1.92;;;6.90;99.90;;;;;;5015325;28;20036;-71
2022/04/08 00:39:21;;;;;;;15.05;3.40;;;6.90;99.90;;;;;;5015245;28;20117;-71
2022/04/08 00:41:47;;;;;;;13.02;1.80;;;6.90;99.90;;;;;;5015430;28;20046;-72
2022/04/08 00:44:13;;;;;;;15.75;1.73;;;6.90;99.90;;;;;;5015165;28;20044;-72
2022/04/08 00:46:38;;;;;;;12.52;1.88;;;6.90;99.90;;;;;;5014985;28;20108;-72
2022/04/08 00:49:04;;;;;;;16.27;1.85;;;7.00;99.90;;;;;;5015390;28;20030;-71
2022/04/08 00:51:34;;;;;;;16.95;2.97;;;7.00;99.90;;;;;;5015303;28;20057;-71
2022/04/08 00:54:00;;;;;;;14.93;1.92;;;7.00;99.90;;;;;;5014970;28;20045;-71
2022/04/08 00:56:29;;;;;;;11.20;1.65;;;7.00;99.90;;;;;;5014978;28;20037;-73
2022/04/08 00:58:56;;;;;;;10.70;1.38;;;7.00;99.90;;;;;;5015005;28;20030;-70
2022/04/08 01:01:23;;;;;;;14.68;1.58;;;7.00;99.90;;;;;;5014788;28;20038;-74
2022/04/08 01:03:52;;;;;;;17.60;2.22;;;6.90;99.90;;;;;;5015087;28;20437;-73
2022/04/08 01:06:19;;;;;;;11.55;1.77;;;6.80;99.90;;;;;;5014658;28;20026;-72
2022/04/08 01:08:44;;;;;;;16.48;2.45;;;6.80;99.90;;;;;;5014900;28;20378;-70
2022/04/08 01:11:10;;;;;;;9.45;2.17;;;6.80;99.90;;;;;;5013422;28;20022;-71
2022/04/08 01:13:36;;;;;;;9.45;1.50;;;6.80;99.90;;;;;;5013180;28;20038;-73
2022/04/08 01:16:05;;;;;;;12.75;3.42;;;6.80;99.90;;;;;;5015070;28;20022;-69
2022/04/08 01:18:30;;;;;;;11.25;1.55;;;6.80;99.90;;;;;;5014647;28;20018;-74
2022/04/08 01:20:56;;;;;;;15.38;3.45;;;6.70;99.90;;;;;;5014881;28;20041;-72
2022/04/08 01:23:23;;;;;;;9.45;3.95;;;6.60;99.90;;;;;;5014508;28;20041;-72
2022/04/08 01:25:49;;;;;;;12.20;1.67;;;6.60;99.90;;;;;;5014503;28;20469;-71
2022/04/08 01:28:14;;;;;;;16.05;3.58;;;6.60;99.90;;;;;;5014714;28;20034;-73
2022/04/08 01:30:40;;;;;;;8.82;1.80;;;6.60;99.90;;;;;;5014133;28;20057;-71
2022/04/08 01:33:06;;;;;;;11.80;2.75;;;6.60;99.90;;;;;;5014364;28;20037;-68
2022/04/08 01:35:31;;;;;;;11.57;2.15;;;6.50;99.90;;;;;;5014415;28;20432;-72
2022/04/08 01:37:57;;;;;;;13.90;2.03;;;6.50;99.90;;;;;;5017240;28;20025;-73
2022/04/08 01:40:23;;;;;;;8.75;2.00;;;6.40;99.90;;;;;;5014196;28;20037;-72
2022/04/08 01:42:48;;;;;;;9.38;1.63;;;6.40;99.90;;;;;;5014352;28;20038;-71
2022/04/08 01:45:14;;;;;;;5.90;1.65;;;6.40;99.90;;;;;;5013379;28;20466;-70
2022/04/08 01:47:40;;;;;;;10.57;1.90;;;6.40;99.90;;;;;;5014071;28;20034;-70
2022/04/08 01:50:07;;;;;;;9.90;2.25;;;6.40;99.90;;;;;;5014200;28;20096;-69
2022/04/08 01:52:32;;;;;;;17.92;2.75;;;6.40;99.90;;;;;;5014041;28;20026;-69
2022/04/08 01:54:58;;;;;;;11.98;1.75;;;6.30;99.90;;;;;;5013692;28;20033;-71
2022/04/08 01:57:24;;;;;;;12.27;1.73;;;6.30;99.90;;;;;;5014199;28;20037;-69
2022/04/08 01:59:52;;;;;;;10.98;2.17;;;6.20;99.90;;;;;;5014246;28;20552;-72
2022/04/08 02:02:18;;;;;;;11.80;1.90;;;6.30;99.90;;;;;;5013730;28;20037;-72
2022/04/08 02:04:43;;;;;;;12.82;2.15;;;6.30;99.90;;;;;;5013735;28;20038;-71
2022/04/08 02:07:09;;;;;;;16.15;3.20;;;6.30;99.90;;;;;;5013891;28;20084;-71
2022/04/08 02:09:34;;;;;;;13.52;2.60;;;6.40;99.90;;;;;;5013923;28;20371;-70
2022/04/08 02:12:00;;;;;;;10.55;1.92;;;6.40;99.90;;;;;;5013409;28;20033;-73
2022/04/08 02:14:26;;;;;;;11.52;2.42;;;6.50;99.90;;;;;;5013747;28;20097;-74
2022/04/08 02:16:51;;;;;;;12.68;2.17;;;6.60;99.90;;;;;;5013424;28;20033;-72
2022/04/08 02:19:17;;;;;;;11.68;1.80;;;6.60;99.90;;;;;;5012176;28;20034;-74
2022/04/08 02:21:43;;;;;;;10.60;2.03;;;6.70;99.90;;;;;;5012270;28;20435;-73
2022/04/08 02:24:09;;;;;;;11.40;2.50;;;6.70;99.90;;;;;;5013684;28;20577;-74
2022/04/08 02:26:35;;;;;;;12.77;2.08;;;6.70;99.90;;;;;;5013396;28;20081;-73
2022/04/08 02:29:00;;;;;;;11.05;1.98;;;6.70;99.90;;;;;;5013720;28;20034;-71
2022/04/08 02:31:26;;;;;;;11.55;2.20;;;6.70;99.90;;;;;;5013422;28;20080;-73
2022/04/08 02:33:51;;;;;;;6.82;2.05;;;6.80;99.90;;;;;;5013611;28;20370;-71
2022/04/08 02:36:17;;;;;;;8.13;1.80;;;6.70;99.90;;;;;;5012928;28;20126;-69
2022/04/08 02:38:42;;;;;;;14.00;2.58;;;6.70;99.90;;;;;;5013423;28;20065;-71
2022/04/08 02:41:08;;;;;;;14.00;2.55;;;6.80;99.90;;;;;;5011906;28;20139;-71
2022/04/08 02:43:34;;;;;;;10.77;1.60;;;6.80;99.90;;;;;;5013404;28;20091;-71
2022/04/08 02:46:00;;;;;;;12.98;2.05;;;6.80;99.90;;;;;;5013067;28;20080;-69
2022/04/08 02:48:26;;;;;;;13.73;2.42;;;6.90;99.90;;;;;;5013019;28;20126;-70
2022/04/08 02:50:51;;;;;;;8.75;1.90;;;6.90;99.90;;;;;;5013122;28;20112;-70
2022/04/08 02:53:17;;;;;;;9.27;1.77;;;6.90;99.90;;;;;;5012948;28;20113;-71
2022/04/08 02:55:42;;;;;;;10.25;3.30;;;6.90;99.90;;;;;;5012956;28;20053;-72
2022/04/08 02:58:08;;;;;;;7.90;1.98;;;6.90;99.90;;;;;;5012781;28;20034;-71
2022/04/08 03:00:33;;;;;;;10.50;2.03;;;7.00;99.90;;;;;;5012903;28;20033;-73
2022/04/08 03:02:59;;;;;;;11.13;2.10;;;7.00;99.90;;;;;;5013043;28;20030;-72
2022/04/08 03:05:24;;;;;;;15.93;2.13;;;7.00;99.90;;;;;;5012654;28;20033;-72
2022/04/08 03:07:50;;;;;;;10.85;2.22;;;7.00;99.90;;;;;;5013093;28;20048;-73
2022/04/08 03:10:16;;;;;;;11.63;2.38;;;7.00;99.90;;;;;;5012812;28;20179;-71
2022/04/08 03:12:41;;;;;;;13.50;2.00;;;7.00;99.90;;;;;;5012871;28;20066;-72
2022/04/08 03:15:08;;;;;;;8.80;1.75;;;7.00;99.90;;;;;;5008021;28;20045;-73
2022/04/08 03:17:36;;;;;;;10.77;1.90;;;6.90;99.90;;;;;;5002487;28;20037;-73
2022/04/08 03:20:02;;;;;;;10.10;2.00;;;6.90;99.90;;;;;;5012224;28;20462;-73
2022/04/08 03:22:27;;;;;;;8.75;1.70;;;7.00;99.90;;;;;;5012632;28;20129;-71
2022/04/08 03:24:54;;;;;;;11.02;1.98;;;6.90;99.90;;;;;;5012244;28;20037;-74
2022/04/08 03:27:19;;;;;;;10.18;1.90;;;6.90;99.90;;;;;;5012626;28;20053;-71
2022/04/08 03:29:45;;;;;;;10.30;2.15;;;6.90;99.90;;;;;;5012734;28;20413;-73
2022/04/08 03:32:11;;;;;;;5.45;1.52;;;6.90;99.90;;;;;;5012871;28;20113;-71
2022/04/08 03:34:37;;;;;;;8.02;1.95;;;6.80;99.90;;;;;;4996229;28;20437;-74
2022/04/08 03:37:04;;;;;;;9.27;1.50;;;6.80;99.90;;;;;;5017306;28;20018;-71
2022/04/08 03:39:29;;;;;;;12.85;1.83;;;6.80;99.90;;;;;;5013326;28;20076;-72
2022/04/08 03:41:55;;;;;;;10.27;1.80;;;6.70;99.90;;;;;;5012945;28;20479;-69
2022/04/08 03:44:21;;;;;;;13.65;1.60;;;6.70;99.90;;;;;;5012544;28;20459;-68
2022/04/08 03:46:47;;;;;;;9.20;1.90;;;6.70;99.90;;;;;;5012913;28;20442;-70
2022/04/08 03:49:16;;;;;;;13.48;2.53;;;6.60;99.90;;;;;;5012227;28;20117;-68
2022/04/08 03:51:42;;;;;;;12.45;1.88;;;6.60;99.90;;;;;;5012181;28;20572;-70
2022/04/08 03:54:08;;;;;;;10.02;2.00;;;6.60;99.90;;;;;;5011980;28;20058;-72
2022/04/08 03:56:35;;;;;;;15.63;2.15;;;6.50;99.90;;;;;;5012555;28;20033;-72
2022/04/08 03:59:00;;;;;;;16.95;2.00;;;6.50;99.90;;;;;;5012210;28;20049;-71
2022/04/08 04:01:26;;;;;;;12.77;1.65;;;6.50;99.90;;;;;;5012144;28;20049;-72
2022/04/08 04:03:52;;;;;;;8.98;1.80;;;6.50;99.90;;;;;;5010275;28;20068;-68
2022/04/08 04:06:17;;;;;;;17.02;2.67;;;6.40;99.90;;;;;;5011829;28;20041;-68
2022/04/08 04:08:43;;;;;;;10.98;2.67;;;6.40;99.90;;;;;;5015468;28;20049;-69
2022/04/08 04:11:09;;;;;;;10.02;1.77;;;6.40;99.90;;;;;;5016226;28;20040;-69
2022/04/08 04:13:34;;;;;;;8.82;1.45;;;6.40;99.90;;;;;;5015403;28;20022;-69
2022/04/08 04:16:00;;;;;;;12.32;2.00;;;6.40;99.90;;;;;;5015944;28;20390;-69
2022/04/08 04:18:26;;;;;;;13.15;2.08;;;6.30;99.90;;;;;;5014399;28;20102;-69
2022/04/08 04:20:52;;;;;;;7.63;1.45;;;6.30;99.90;;;;;;5015637;28;20212;-72
2022/04/08 04:23:18;;;;;;;15.48;2.88;;;6.20;99.90;;;;;;5015309;28;20462;-70
2022/04/08 04:25:43;;;;;;;8.90;2.13;;;6.30;99.90;;;;;;5015502;28;20054;-73
2022/04/08 04:28:09;;;;;;;13.13;2.45;;;6.30;99.90;;;;;;5015469;28;20048;-70
2022/04/08 04:30:35;;;;;;;15.35;3.05;;;6.30;99.90;;;;;;5015457;28;20035;-74
2022/04/08 04:33:00;;;;;;;15.98;3.60;;;6.30;99.90;;;;;;5015480;28;20036;-73
2022/04/08 04:35:26;;;;;;;15.02;2.92;;;6.30;99.90;;;;;;5020672;28;20117;-68
2022/04/08 04:37:52;;;;;;;15.32;2.50;;;6.30;99.90;;;;;;5015367;28;20034;-72
2022/04/08 04:40:18;;;;;;;16.05;2.88;;;6.30;99.90;;;;;;5015195;28;20052;-72
2022/04/08 04:42:44;;;;;;;14.60;2.75;;;6.30;99.90;;;;;;5015381;28;20035;-73
2022/04/08 04:45:11;;;;;;;20.13;3.22;;;6.30;99.90;;;;;;5015558;28;20022;-70
2022/04/08 04:47:38;;;;;;;11.45;3.30;;;6.30;99.90;;;;;;5015229;28;20029;-71
2022/04/08 04:50:05;;;;;;;27.40;6.45;;;6.20;99.90;;;;;;5015404;28;20030;-73
2022/04/08 04:52:30;;;;;;;14.35;2.88;;;6.20;99.90;;;;;;5015335;28;20026;-72
2022/04/08 04:54:56;;;;;;;20.52;4.35;;;6.20;99.90;;;;;;5014869;28;20029;-73
2022/04/08 04:57:22;;;;;;;18.25;4.05;;;6.20;99.90;;;;;;5014518;28;20033;-71
2022/04/08 04:59:48;;;;;;;19.92;4.65;;;6.30;99.90;;;;;;5015034;28;20123;-71
2022/04/08 05:02:14;;;;;;;19.85;4.55;;;6.30;99.90;;;;;;5015234;28;20029;-71
2022/04/08 05:04:39;;;;;;;13.85;3.70;;;6.30;99.90;;;;;;5015023;28;20076;-72
2022/04/08 05:07:05;;;;;;;14.25;3.47;;;6.30;99.90;;;;;;5015307;28;20030;-72
2022/04/08 05:09:31;;;;;;;14.40;3.25;;;6.30;99.90;;;;;;5014912;28;20037;-71
2022/04/08 05:11:56;;;;;;;15.77;2.90;;;6.30;99.90;;;;;;5015182;28;20038;-69
2022/04/08 05:14:24;;;;;;;15.75;3.63;;;6.40;99.90;;;;;;5014308;28;20033;-70
2022/04/08 05:16:50;;;;;;;15.63;2.88;;;6.50;99.90;;;;;;5029724;28;20040;-70
2022/04/08 05:19:16;;;;;;;11.60;2.78;;;6.50;99.90;;;;;;5013239;28;20056;-68
2022/04/08 05:21:42;;;;;;;15.80;3.42;;;6.60;99.90;;;;;;5014582;28;20040;-72
2022/04/08 05:24:08;;;;;;;16.98;2.88;;;6.70;99.90;;;;;;5014611;28;20458;-70
2022/04/08 05:26:33;;;;;;;16.92;2.97;;;6.80;99.90;;;;;;5014084;28;20054;-73
2022/04/08 05:28:59;;;;;;;10.57;2.50;;;6.80;99.90;;;;;;5014590;28;20057;-70
2022/04/08 05:31:24;;;;;;;17.65;3.33;;;6.90;99.90;;;;;;5014399;28;20034;-71
2022/04/08 05:33:49;;;;;;;11.80;1.90;;;7.00;99.90;;;;;;5014360;28;20029;-70
2022/04/08 05:36:15;;;;;;;21.35;3.30;;;7.00;99.90;;;;;;5013832;28;20026;-72
2022/04/08 05:38:41;;;;;;;22.20;4.50;;;7.10;99.90;;;;;;5014475;28;20409;-74
2022/04/08 05:41:06;;;;;;;16.45;3.08;;;7.10;99.90;;;;;;5014185;28;20045;-74
2022/04/08 05:43:32;;;;;;;10.55;2.40;;;7.10;99.90;;;;;;5014151;28;20476;-70
2022/04/08 05:45:57;;;;;;;23.73;4.88;;;7.20;99.90;;;;;;5013984;28;20037;-72
2022/04/08 05:48:23;;;;;;;10.77;2.35;;;7.20;99.90;;;;;;5014328;28;20053;-70
2022/04/08 05:50:49;;;;;;;20.70;3.42;;;7.20;99.90;;;;;;5014503;28;20160;-73
2022/04/08 05:53:14;;;;;;;20.55;3.97;;;7.30;99.90;;;;;;5014589;28;20038;-75
2022/04/08 05:55:40;;;;;;;15.57;2.88;;;7.30;99.90;;;;;;5013949;28;20378;-72
2022/04/08 05:58:05;;;;;;;15.77;2.72;;;7.30;99.90;;;;;;5014083;28;20462;-68
2022/04/08 06:00:34;;;;;;;9.60;2.42;;;7.40;99.90;;;;;;5013757;28;20041;-72
2022/04/08 06:02:59;;;;;;;19.15;3.55;;;7.40;99.90;;;;;;5014015;28;20042;-70
2022/04/08 06:05:25;;;;;;;8.93;2.20;;;7.40;99.90;;;;;;5013605;28;20030;-71
2022/04/08 06:07:53;;;;;;;18.17;3.22;;;7.40;99.90;;;;;;5014101;28;20077;-71
2022/04/08 06:10:22;;;;;;;14.55;2.70;;;7.40;99.90;;;;;;5013400;28;20041;-69
2022/04/08 06:12:57;;;;;;;14.73;2.92;;;7.50;99.90;;;;;;5011712;28;20033;-71
2022/04/08 06:15:23;;;;;;;15.10;2.53;;;7.60;99.90;;;;;;5003666;28;20026;-70
2022/04/08 06:17:49;;;;;;;9.52;2.53;;;7.70;99.90;;;;;;5013581;28;20033;-72
2022/04/08 06:20:17;;;;;;;15.27;3.80;;;7.70;99.90;;;;;;5012732;28;20030;-71
2022/04/08 06:22:43;;;;;;;16.58;2.17;;;7.80;99.90;;;;;;5013781;28;20072;-71
2022/04/08 06:25:16;;;;;;;13.73;3.20;;;7.90;99.90;;;;;;5013628;28;20057;-71
2022/04/08 06:27:44;;;;;;;14.75;3.45;;;8.00;99.90;;;;;;5013775;28;20049;-70
2022/04/08 06:30:11;;;;;;;16.38;3.65;;;8.00;99.90;;;;;;4999432;28;20367;-71
2022/04/08 06:32:38;;;;;;;10.05;2.35;;;8.00;99.90;;;;;;5013541;28;20084;-71
2022/04/08 06:35:04;;;;;;;14.70;2.70;;;8.10;99.90;;;;;;5013139;28;20036;-72
2022/04/08 06:37:30;;;;;;;13.45;2.13;;;8.10;99.90;;;;;;5013328;28;20057;-72
2022/04/08 06:40:01;;;;;;;12.95;2.60;;;8.20;99.90;;;;;;5013265;28;20034;-73
2022/04/08 06:42:26;;;;;;;14.32;3.75;;;8.20;99.90;;;;;;5013042;28;20033;-71
2022/04/08 06:44:52;;;;;;;12.15;1.88;;;8.30;99.90;;;;;;4997345;28;20480;-73
2022/04/08 06:47:17;;;;;;;12.18;1.85;;;8.40;99.90;;;;;;4993682;28;20046;-70
2022/04/08 06:49:46;;;;;;;19.65;3.25;;;8.40;99.90;;;;;;5010779;28;20037;-74
2022/04/08 06:52:12;;;;;;;14.77;2.45;;;8.40;99.90;;;;;;5012313;28;21538;-73
2022/04/08 06:54:39;;;;;;;9.32;2.35;;;8.50;99.90;;;;;;5013261;28;20026;-72
2022/04/08 06:57:04;;;;;;;11.38;2.72;;;8.60;99.90;;;;;;5011784;28;20026;-75
2022/04/08 06:59:30;;;;;;;15.35;3.47;;;8.70;99.90;;;;;;5011807;28;20045;-71
2022/04/08 07:01:55;;;;;;;16.98;4.22;;;8.70;99.90;;;;;;5026909;28;20044;-73
2022/04/08 07:04:21;;;;;;;12.82;3.40;;;8.70;99.90;;;;;;5011010;28;20036;-68
2022/04/08 07:06:47;;;;;;;15.85;2.80;;;8.90;99.90;;;;;;5011741;28;20088;-71
2022/04/08 07:09:13;;;;;;;10.38;2.40;;;9.00;99.90;;;;;;5012331;28;20033;-68
2022/04/08 07:11:38;;;;;;;9.13;1.90;;;9.10;99.90;;;;;;5013062;28;20094;-72
2022/04/08 07:14:04;;;;;;;8.57;2.40;;;9.20;99.90;;;;;;5014216;28;20159;-73
2022/04/08 07:16:30;;;;;;;11.15;2.88;;;9.20;99.90;;;;;;5013195;28;20061;-69
2022/04/08 07:18:55;;;;;;;10.05;1.65;;;9.30;99.90;;;;;;5013173;28;20057;-71
2022/04/08 07:21:22;;;;;;;10.48;2.15;;;9.40;99.90;;;;;;5012783;28;20034;-72
2022/04/08 07:23:48;;;;;;;12.55;2.35;;;9.60;99.90;;;;;;5028143;28;20030;-71
2022/04/08 07:26:14;;;;;;;16.75;2.33;;;9.80;99.90;;;;;;5012948;28;20046;-71
2022/04/08 07:28:39;;;;;;;10.43;2.00;;;10.00;99.90;;;;;;5012777;28;20033;-71
2022/04/08 07:31:05;;;;;;;7.53;2.10;;;10.30;99.90;;;;;;5012776;28;20026;-69
2022/04/08 07:33:30;;;;;;;7.88;1.80;;;10.40;99.90;;;;;;5012440;28;20437;-71
2022/04/08 07:35:58;;;;;;;10.63;2.42;;;10.30;99.90;;;;;;5012604;28;20030;-70
2022/04/08 07:38:24;;;;;;;10.68;2.05;;;10.30;99.90;;;;;;5012840;28;20467;-73
2022/04/08 07:40:50;;;;;;;12.10;2.78;;;10.30;99.90;;;;;;5012441;28;20044;-71
2022/04/08 07:43:16;;;;;;;8.20;1.48;;;10.40;99.90;;;;;;5016954;28;20037;-69
2022/04/08 07:45:42;;;;;;;8.77;2.42;;;10.50;99.90;;;;;;5016557;28;20026;-70
2022/04/08 07:48:08;;;;;;;6.35;2.25;;;10.70;99.90;;;;;;5016324;28;20026;-69
2022/04/08 07:50:37;;;;;;;9.30;1.95;;;11.10;99.90;;;;;;5016523;28;20037;-71
2022/04/08 07:53:02;;;;;;;10.80;1.98;;;11.70;99.90;;;;;;5016763;28;20474;-71
2022/04/08 07:55:29;;;;;;;11.02;2.00;;;12.30;99.90;;;;;;5016519;28;20029;-71
2022/04/08 07:57:54;;;;;;;16.23;2.80;;;12.80;99.90;;;;;;5016331;28;20033;-72
2022/04/08 08:00:24;;;;;;;9.57;2.63;;;13.00;99.90;;;;;;5016290;28;20036;-70
2022/04/08 08:02:50;;;;;;;13.00;2.75;;;12.90;99.90;;;;;;5015915;28;20080;-70
2022/04/08 08:05:16;;;;;;;14.52;3.28;;;12.60;99.90;;;;;;5016199;28;20104;-73
2022/04/08 08:07:47;;;;;;;10.20;2.45;;;12.40;99.90;;;;;;5016233;28;20061;-71
2022/04/08 08:10:17;;;;;;;14.38;2.38;;;12.80;99.90;;;;;;5016079;28;20028;-68
2022/04/08 08:12:42;;;;;;;12.00;1.85;;;13.50;99.90;;;;;;5015983;28;20036;-69
2022/04/08 08:15:09;;;;;;;11.88;2.40;;;14.20;99.90;;;;;;5015857;28;20030;-70
2022/04/08 08:17:35;;;;;;;8.00;2.35;;;14.40;99.70;;;;;;5016104;28;20429;-73
2022/04/08 08:20:00;;;;;;;13.48;1.95;;;14.50;99.80;;;;;;5016189;28;20026;-69
2022/04/08 08:22:26;;;;;;;12.70;1.85;;;14.50;99.20;;;;;;5016138;28;20079;-74
2022/04/08 08:24:51;;;;;;;8.60;2.00;;;14.70;99.20;;;;;;5015963;28;20049;-71
2022/04/08 08:27:17;;;;;;;10.48;1.83;;;15.20;98.90;;;;;;5015953;28;20061;-68
2022/04/08 08:29:43;;;;;;;8.57;1.92;;;15.30;98.40;;;;;;5015294;28;20069;-73
2022/04/08 08:32:08;;;;;;;10.10;2.00;;;15.20;98.00;;;;;;5015667;28;20037;-71
2022/04/08 08:34:34;;;;;;;9.82;2.05;;;15.30;98.00;;;;;;5015483;28;20033;-72
2022/04/08 08:36:59;;;;;;;14.73;2.55;;;15.70;97.70;;;;;;5015900;28;20068;-72
2022/04/08 08:39:26;;;;;;;6.82;1.55;;;16.30;97.30;;;;;;5015700;28;20092;-69
2022/04/08 08:41:52;;;;;;;8.70;2.03;;;16.70;96.10;;;;;;5015336;28;20490;-70
2022/04/08 08:44:19;;;;;;;10.32;1.85;;;17.00;95.70;;;;;;5015334;28;20033;-70
2022/04/08 08:46:44;;;;;;;6.65;2.15;;;16.90;95.70;;;;;;5016046;28;20482;-71
2022/04/08 08:49:12;;;;;;;8.75;1.75;;;16.70;95.90;;;;;;5015612;28;20058;-73
2022/04/08 08:51:41;;;;;;;13.95;2.55;;;16.60;95.90;;;;;;5015672;28;20037;-69
2022/04/08 08:54:06;;;;;;;8.73;2.03;;;16.30;96.20;;;;;;5014587;28;20025;-69
2022/04/08 08:56:32;;;;;;;12.43;2.40;;;15.90;96.60;;;;;;5015203;28;20037;-72
2022/04/08 08:58:57;;;;;;;8.25;1.70;;;15.60;97.00;;;;;;5014927;28;20561;-73
2022/04/08 09:01:23;;;;;;;10.98;2.15;;;15.20;97.50;;;;;;5014841;28;20037;-70
2022/04/08 09:03:48;;;;;;;12.95;2.33;;;14.80;98.00;;;;;;5015203;28;20018;-70
2022/04/08 09:06:16;;;;;;;12.20;2.20;;;14.50;98.50;;;;;;5030288;28;20030;-72
2022/04/08 09:08:42;;;;;;;8.55;2.03;;;14.40;98.70;;;;;;5015099;28;20109;-70
2022/04/08 09:11:08;;;;;;;9.80;1.50;;;14.60;98.90;;;;;;5014908;28;20026;-70
2022/04/08 09:13:46;;;;;;;15.45;1.98;;;15.00;98.40;;;;;;5015069;28;20378;-73
2022/04/08 09:16:12;;;;;;;8.73;1.83;;;15.60;98.20;;;;;;5015434;28;20034;-70
2022/04/08 09:18:41;;;;;;;11.30;2.10;;;15.90;97.30;;;;;;5013888;28;20033;-70
2022/04/08 09:21:07;;;;;;;11.15;1.67;;;15.80;97.40;;;;;;5015075;28;20030;-69
2022/04/08 09:23:33;;;;;;;9.27;2.35;;;15.70;97.40;;;;;;5014615;28;20037;-71
2022/04/08 09:26:03;;;;;;;17.67;2.60;;;15.50;97.50;;;;;;5014060;28;20034;-69
2022/04/08 09:28:51;;;;;;;10.48;1.98;;;15.20;97.80;;;;;;5014829;28;20092;-68
2022/04/08 09:31:20;;;;;;;10.32;2.30;;;15.00;98.20;;;;;;5013489;28;20033;-70
2022/04/08 09:33:52;;;;;;;11.27;2.20;;;14.80;98.50;;;;;;5014700;28;20032;-70
2022/04/08 09:36:30;;;;;;;9.63;2.35;;;14.60;98.80;;;;;;5014128;28;20413;-71
2022/04/08 09:38:56;;;;;;;7.47;2.00;;;14.50;99.20;;;;;;5013343;28;20377;-72
2022/04/08 09:41:37;;;;;;;8.20;2.60;;;14.30;99.40;;;;;;5014571;28;20038;-70
2022/04/08 09:44:03;;;;;;;9.73;2.80;;;14.30;99.50;;;;;;5013483;28;20120;-68
2022/04/08 09:46:29;;;;;;;7.60;2.17;;;14.20;99.60;;;;;;5014478;28;20498;-70
2022/04/08 09:48:54;;;;;;;12.38;2.10;;;14.10;99.60;;;;;;5014133;28;20096;-69
2022/04/08 09:51:21;;;;;;;15.75;3.67;;;13.90;99.60;;;;;;5014335;28;20038;-71
2022/04/08 09:54:04;;;;;;;14.30;3.45;;;13.60;99.90;;;;;;5014287;28;20025;-72
2022/04/08 09:56:30;;;;;;;15.40;4.93;;;13.30;99.90;;;;;;5013718;28;20030;-71
2022/04/08 09:59:00;;;;;;;18.17;3.83;;;13.10;99.90;;;;;;5030655;28;20388;-70
2022/04/08 10:01:28;;;;;;;14.63;3.35;;;13.10;99.90;;;;;;5013509;28;20482;-70
2022/04/08 10:03:53;;;;;;;16.42;2.90;;;13.20;99.90;;;;;;5018842;28;20021;-70
2022/04/08 10:06:19;;;;;;;15.30;4.68;;;13.40;99.90;;;;;;5032734;28;20037;-67
2022/04/08 10:08:47;;;;;;;9.82;3.78;;;13.50;99.90;;;;;;5033902;28;20516;-70
2022/04/08 10:11:18;;;;;;;9.65;2.10;;;13.50;99.90;;;;;;5033667;28;20108;-71
2022/04/08 10:14:29;;;;;;;19.47;3.10;;;13.40;99.90;;;;;;5017998;28;20407;-72
2022/04/08 10:16:58;;;;;;;10.70;2.30;;;13.40;99.90;;;;;;5012737;28;20045;-69
2022/04/08 10:19:23;;;;;;;15.23;3.28;;;13.30;99.90;;;;;;5013653;28;20034;-69
2022/04/08 10:21:52;;;;;;;10.05;2.45;;;13.20;99.90;;;;;;5013732;28;20042;-72
2022/04/08 10:24:23;;;;;;;4.75;2.08;;;13.40;99.90;;;;;;5013407;28;20037;-70
2022/04/08 10:26:57;;;;;;;7.78;2.08;;;13.90;99.90;;;;;;5069634;28;20138;-72
2022/04/08 10:29:23;;;;;;;13.35;3.35;;;14.60;99.50;;;;;;5072805;28;20081;-70
2022/04/08 10:31:57;;;;;;;14.30;3.35;;;15.10;99.10;;;;;;5090061;28;20024;-71
2022/04/08 10:34:23;;;;;;;10.82;2.50;;;15.50;98.20;;;;;;5090167;28;20034;-68
2022/04/08 10:36:49;;;;;;;12.68;3.25;;;15.50;98.00;;;;;;5090038;28;20027;-70
2022/04/08 10:39:20;;;;;;;11.15;2.97;;;15.40;98.00;;;;;;5090431;28;20036;-69
2022/04/08 10:41:56;;;;;;;10.75;2.83;;;15.00;98.10;;;;;;5089074;28;20024;-68
2022/04/08 10:44:39;;;;;;;6.32;1.98;;;14.80;98.50;;;;;;5090076;28;20048;-72
2022/04/08 10:47:20;;;;;;;7.20;2.08;;;14.60;98.60;;;;;;5089777;28;20032;-68
2022/04/08 10:50:03;;;;;;;9.07;2.65;;;14.80;98.70;;;;;;5089790;28;20115;-70
2022/04/08 10:52:30;;;;;;;8.18;2.28;;;15.00;98.40;;;;;;5089430;28;20486;-71
2022/04/08 10:55:09;;;;;;;9.77;2.10;;;15.20;98.30;;;;;;5089879;28;20047;-69
2022/04/08 10:57:34;;;;;;;8.55;1.90;;;15.20;98.20;;;;;;5089634;28;20024;-67
2022/04/08 11:00:07;;;;;;;13.55;3.13;;;15.30;98.30;;;;;;5070458;28;20028;-69
2022/04/08 11:02:35;;;;;;;12.02;1.92;;;15.20;98.20;;;;;;5069477;28;20028;-68
2022/04/08 11:05:06;;;;;;;7.97;1.67;;;15.10;98.10;;;;;;5069698;28;20086;-69
2022/04/08 11:07:32;;;;;;;6.15;1.80;;;14.90;97.80;;;;;;5069394;28;20048;-71
2022/04/08 11:09:58;;;;;;;10.02;2.22;;;14.80;98.00;;;;;;5069621;28;20457;-72
2022/04/08 11:12:25;;;;;;;10.18;1.90;;;14.70;98.00;;;;;;5069875;28;20017;-70
2022/04/08 11:14:58;;;;;;;6.50;1.80;;;14.60;98.10;;;;;;5073922;28;20032;-70
2022/04/08 11:17:33;;;;;;;8.82;1.92;;;14.70;98.00;;;;;;5074636;28;20108;-68
2022/04/08 11:19:59;;;;;;;11.10;2.33;;;14.80;97.90;;;;;;5071919;28;20025;-67
2022/04/08 11:22:25;;;;;;;11.88;1.90;;;14.80;97.30;;;;;;5070075;28;20035;-69
2022/04/08 11:24:56;;;;;;;6.75;1.50;;;14.80;97.40;;;;;;5068346;28;20397;-72
2022/04/08 11:27:22;;;;;;;6.75;1.35;;;15.00;97.40;;;;;;5069016;28;20013;-68
2022/04/08 11:29:47;;;;;;;6.63;1.55;;;15.40;97.20;;;;;;5068712;28;20028;-70
2022/04/08 11:32:13;;;;;;;10.00;2.53;;;15.70;96.60;;;;;;5068554;28;20413;-68
2022/04/08 11:34:39;;;;;;;8.90;1.80;;;15.90;96.20;;;;;;5068561;28;20028;-70
2022/04/08 11:37:05;;;;;;;8.82;1.90;;;16.30;95.80;;;;;;5062068;28;20020;-70
2022/04/08 11:39:31;;;;;;;9.13;1.75;;;16.80;95.20;;;;;;5055110;28;20047;-72
2022/04/08 11:41:57;;;;;;;11.23;2.15;;;17.10;94.60;;;;;;5055453;28;20028;-68
2022/04/08 11:44:24;;;;;;;5.97;1.75;;;17.20;94.10;;;;;;5055483;28;20032;-71
2022/04/08 11:46:50;;;;;;;12.63;1.95;;;17.00;94.80;;;;;;5055070;28;20029;-72
2022/04/08 11:49:18;;;;;;;9.23;1.90;;;17.40;95.10;;;;;;5055275;28;20021;-71
2022/04/08 11:51:45;;;;;;;11.30;1.75;;;17.90;94.30;;;;;;5055248;28;20057;-71
2022/04/08 11:54:11;;;;;;;7.85;1.67;;;18.00;93.30;;;;;;5055343;28;20024;-70
2022/04/08 11:56:37;;;;;;;4.70;1.08;;;17.80;93.60;;;;;;5055293;28;20461;-70
2022/04/08 11:59:11;;;;;;;8.02;1.83;;;17.90;93.10;;;;;;5055040;28;20020;-72
2022/04/08 12:01:39;;;;;;;6.22;1.50;;;18.00;93.20;;;;;;5055061;28;20457;-71
2022/04/08 12:04:09;;;;;;;8.68;1.95;;;17.80;93.30;;;;;;5054585;28;20053;-72
2022/04/08 12:06:45;;;;;;;6.93;1.58;;;17.50;93.20;;;;;;5054686;28;20041;-69
2022/04/08 12:09:13;;;;;;;7.53;1.60;;;17.10;93.40;;;;;;5055092;28;20017;-71
2022/04/08 12:11:39;;;;;;;6.72;1.38;;;17.00;94.30;;;;;;5054777;28;20044;-68
2022/04/08 12:14:09;;;;;;;7.28;1.60;;;17.20;94.10;;;;;;5054784;28;20461;-70
2022/04/08 12:16:39;;;;;;;9.45;2.20;;;17.60;93.10;;;;;;5053375;28;20116;-69
2022/04/08 12:19:08;;;;;;;9.43;1.67;;;17.70;93.10;;;;;;5054881;28;20032;-69
2022/04/08 12:21:34;;;;;;;12.23;1.27;;;17.70;92.70;;;;;;5054601;28;20037;-69
2022/04/08 12:24:02;;;;;;;4.50;1.50;;;17.40;92.90;;;;;;5054698;28;20021;-70
2022/04/08 12:26:32;;;;;;;8.07;2.20;;;17.20;93.10;;;;;;5054068;28;20605;-71
2022/04/08 12:29:15;;;;;;;7.13;1.48;;;17.00;93.50;;;;;;5060774;28;20059;-72
2022/04/08 12:31:54;;;;;;;5.07;1.48;;;17.00;92.90;;;;;;5063237;28;20115;-70
2022/04/08 12:34:19;;;;;;;7.10;2.13;;;17.00;93.50;;;;;;5054523;28;20017;-68
2022/04/08 12:36:46;;;;;;;5.90;1.30;;;17.00;93.60;;;;;;5072122;28;20032;-68
2022/04/08 12:39:12;;;;;;;8.60;1.60;;;17.00;93.50;;;;;;5074351;28;20021;-70
2022/04/08 12:41:42;;;;;;;6.07;1.77;;;17.00;92.60;;;;;;5074200;28;20098;-71
2022/04/08 12:44:09;;;;;;;5.72;1.30;;;16.90;92.90;;;;;;5066055;28;20033;-67